Thunder radar more information blitzortung!


Radar de pluja more information rain snow radar


Visita la nostra xarxa de llocs de meteo:

Template documentation
and downloads

And another site



No particular awareness of the weather is required.    There are no Weather-warnings

Pagina Historial Weather Underground text

Diari Resum Abril 10, 2016 Unitats:  Mètric    Imperial   Tant
« Previous Dia
SegĂźent Dia »
Diari Setmana Mensual Anual Personalitzada
  Maxima: Minima: Media:
Temperatura: 20.1 °C 7.9 °C 15.2 °C
Punt de rosada: 10.7 °C 3.7 °C 7.2 °C
Humitat: 78 % 49 % 59 %
Wind Speed: 25.9 km/h 0.0 km/h 8.6 km/h
RĂ fegues de vent: 25.9 km/h - -
Vent:- - South
Pression baro: 1010.7 hPa 1007.0 hPa -
Precipitacions: 0.0 mm    
Historical Graphs
 
 
Dades de taula per Abril 10, 2016
Temps Temperatura Punt de rosada Pression baro Vent Wind Speed RĂ fegues de vent Humitat Rainfall Rate (Hourly)
03:15 7.9 °C 3.7 °C 1010.0 hPa NE 4.8 km/h 4.8 km/h 75 % 0.0 mm
03:25 8.2 °C 3.8 °C 1010.0 hPa NE 3.2 km/h 6.4 km/h 74 % 0.0 mm
03:35 8.4 °C 3.8 °C 1010.0 hPa ENE 4.8 km/h 6.4 km/h 73 % 0.0 mm
03:45 8.8 °C 4.0 °C 1010.0 hPa NE 1.6 km/h 4.8 km/h 72 % 0.0 mm
03:55 9.2 °C 4.2 °C 1009.0 hPa NE 4.8 km/h 8.0 km/h 71 % 0.0 mm
04:05 9.8 °C 4.8 °C 1010.0 hPa NE 3.2 km/h 6.4 km/h 71 % 0.0 mm
04:15 10.3 °C 5.1 °C 1010.0 hPa NE 1.6 km/h 4.8 km/h 70 % 0.0 mm
04:25 10.5 °C 5.1 °C 1009.0 hPa NE 1.6 km/h 6.4 km/h 69 % 0.0 mm
04:35 10.6 °C 4.9 °C 1010.0 hPa NE 3.2 km/h 4.8 km/h 68 % 0.0 mm
04:45 10.7 °C 5.1 °C 1010.0 hPa NE 4.8 km/h 4.8 km/h 68 % 0.0 mm
04:55 11.3 °C 5.6 °C 1010.0 hPa NE 3.2 km/h 4.8 km/h 68 % 0.0 mm
05:05 11.6 °C 5.7 °C 1010.0 hPa NE 1.6 km/h 3.2 km/h 67 % 0.0 mm
05:15 11.9 °C 5.9 °C 1010.0 hPa NE 4.8 km/h 4.8 km/h 67 % 0.0 mm
10:27 13.0 °C 7.2 °C 1010.0 hPa East 5.6 km/h 5.6 km/h 68 % 0.0 mm
10:32 13.3 °C 7.7 °C 1010.0 hPa SW 3.7 km/h 6.4 km/h 69 % 0.0 mm
10:37 13.3 °C 7.7 °C 1010.0 hPa SE 1.9 km/h 5.8 km/h 69 % 0.0 mm
10:43 13.4 °C 7.8 °C 1010.0 hPa SW 3.7 km/h 3.7 km/h 69 % 0.0 mm
10:48 13.5 °C 7.9 °C 1010.0 hPa ESE 6.4 km/h 6.4 km/h 69 % 0.0 mm
10:53 13.6 °C 7.8 °C 1010.0 hPa South 7.4 km/h 7.4 km/h 68 % 0.0 mm
10:58 13.9 °C 8.3 °C 1010.0 hPa ESE 7.4 km/h 7.4 km/h 69 % 0.0 mm
11:03 13.8 °C 8.2 °C 1010.0 hPa ENE 3.9 km/h 4.2 km/h 69 % 0.0 mm
11:08 13.9 °C 8.3 °C 1010.0 hPa East 4.7 km/h 4.7 km/h 69 % 0.0 mm
11:13 14.4 °C 8.6 °C 1010.0 hPa East 3.7 km/h 3.9 km/h 68 % 0.0 mm
11:18 14.6 °C 8.8 °C 1010.0 hPa ESE 7.4 km/h 7.4 km/h 68 % 0.0 mm
11:23 14.9 °C 9.1 °C 1010.0 hPa WSW 7.4 km/h 7.4 km/h 68 % 0.0 mm
11:28 15.1 °C 9.2 °C 1010.0 hPa WSW 5.6 km/h 5.6 km/h 68 % 0.0 mm
11:33 15.3 °C 9.2 °C 1010.0 hPa NNE 3.7 km/h 3.9 km/h 67 % 0.0 mm
11:38 15.4 °C 9.3 °C 1010.0 hPa SW 7.4 km/h 7.4 km/h 67 % 0.0 mm
11:43 15.6 °C 9.3 °C 1010.0 hPa WSW 5.6 km/h 5.6 km/h 66 % 0.0 mm
11:48 15.8 °C 9.4 °C 1010.0 hPa ESE 1.9 km/h 2.3 km/h 66 % 0.0 mm
11:53 15.8 °C 9.4 °C 1010.0 hPa ESE 7.4 km/h 7.4 km/h 66 % 0.0 mm
11:58 15.7 °C 9.4 °C 1010.0 hPa East 6.4 km/h 6.4 km/h 66 % 0.0 mm
12:03 15.9 °C 9.6 °C 1010.0 hPa SW 3.7 km/h 3.7 km/h 66 % 0.0 mm
12:08 16.1 °C 9.5 °C 1010.0 hPa North 5.6 km/h 5.6 km/h 65 % 0.0 mm
12:13 16.3 °C 9.7 °C 1010.0 hPa South 9.3 km/h 9.3 km/h 65 % 0.0 mm
12:18 16.9 °C 10.1 °C 1010.0 hPa WSW 7.4 km/h 7.4 km/h 64 % 0.0 mm
12:23 17.0 °C 9.9 °C 1010.0 hPa West 9.3 km/h 9.3 km/h 63 % 0.0 mm
12:28 17.3 °C 9.9 °C 1010.0 hPa SW 11.1 km/h 11.1 km/h 62 % 0.0 mm
12:33 17.7 °C 10.3 °C 1010.0 hPa SW 3.2 km/h 3.2 km/h 62 % 0.0 mm
12:38 17.8 °C 10.2 °C 1010.0 hPa ENE 7.4 km/h 7.4 km/h 61 % 0.0 mm
12:43 18.0 °C 10.4 °C 1010.0 hPa WSW 9.3 km/h 9.3 km/h 61 % 0.0 mm
12:48 18.3 °C 10.4 °C 1009.0 hPa SSE 9.3 km/h 9.3 km/h 60 % 0.0 mm
12:53 18.8 °C 10.6 °C 1009.0 hPa SW 5.6 km/h 5.6 km/h 59 % 0.0 mm
12:58 18.6 °C 9.9 °C 1009.0 hPa WSW 13.0 km/h 13.0 km/h 57 % 0.0 mm
13:08 19.7 °C 10.7 °C 1009.0 hPa West 6.1 km/h 6.1 km/h 56 % 0.0 mm
13:13 18.8 °C 9.3 °C 1009.0 hPa SSW 16.7 km/h 16.7 km/h 54 % 0.0 mm
13:18 18.8 °C 9.6 °C 1009.0 hPa SW 14.8 km/h 14.8 km/h 55 % 0.0 mm
13:23 18.8 °C 9.6 °C 1009.0 hPa WNW 13.0 km/h 13.0 km/h 55 % 0.0 mm
13:28 18.7 °C 9.4 °C 1009.0 hPa SW 14.8 km/h 14.8 km/h 55 % 0.0 mm
13:33 18.8 °C 9.3 °C 1008.0 hPa WSW 16.7 km/h 16.7 km/h 54 % 0.0 mm
13:38 19.0 °C 9.2 °C 1008.0 hPa SW 16.7 km/h 16.7 km/h 53 % 0.0 mm
13:48 19.1 °C 9.3 °C 1007.0 hPa SW 20.4 km/h 20.4 km/h 53 % 0.0 mm
13:53 19.1 °C 9.3 °C 1007.0 hPa WSW 20.4 km/h 20.4 km/h 53 % 0.0 mm
13:58 18.8 °C 9.3 °C 1007.0 hPa East 13.0 km/h 13.0 km/h 54 % 0.0 mm
14:03 19.2 °C 9.4 °C 1008.0 hPa WSW 7.4 km/h 7.4 km/h 53 % 0.0 mm
14:08 19.3 °C 9.5 °C 1008.0 hPa SW 5.6 km/h 6.4 km/h 53 % 0.0 mm
14:13 19.6 °C 9.4 °C 1008.0 hPa SSW 24.1 km/h 24.1 km/h 52 % 0.0 mm
14:18 19.0 °C 9.2 °C 1008.0 hPa WSW 22.5 km/h 22.5 km/h 53 % 0.0 mm
14:23 18.8 °C 9.0 °C 1008.0 hPa SW 16.7 km/h 16.7 km/h 53 % 2.0 mm
14:28 18.9 °C 9.4 °C 1008.0 hPa WSW 16.7 km/h 16.7 km/h 54 % 4.3 mm
14:33 19.2 °C 9.1 °C 1008.0 hPa SSW 22.2 km/h 22.2 km/h 52 % 4.3 mm
14:38 18.9 °C 9.1 °C 1008.0 hPa SSW 18.5 km/h 18.5 km/h 53 % 4.3 mm
14:43 19.1 °C 9.3 °C 1008.0 hPa WSW 16.7 km/h 16.7 km/h 53 % 0.0 mm
14:48 19.2 °C 9.1 °C 1008.0 hPa SW 18.5 km/h 18.5 km/h 52 % 0.0 mm
14:53 19.1 °C 9.0 °C 1008.0 hPa SW 13.0 km/h 13.0 km/h 52 % 4.1 mm
14:58 19.5 °C 9.1 °C 1008.0 hPa South 14.8 km/h 14.8 km/h 51 % 4.1 mm
15:03 19.4 °C 9.0 °C 1009.0 hPa SSE 10.3 km/h 10.3 km/h 51 % 0.0 mm
15:08 19.7 °C 9.3 °C 1009.0 hPa WSW 14.8 km/h 14.8 km/h 51 % 0.0 mm
15:13 19.6 °C 8.9 °C 1009.0 hPa WSW 13.0 km/h 13.0 km/h 50 % 0.0 mm
15:18 20.1 °C 9.3 °C 1008.0 hPa South 7.4 km/h 7.4 km/h 50 % 0.0 mm
15:23 20.0 °C 9.3 °C 1008.0 hPa South 11.1 km/h 11.1 km/h 50 % 6.3 mm
15:28 19.9 °C 9.2 °C 1008.0 hPa WSW 9.3 km/h 9.3 km/h 50 % 4.1 mm
15:33 19.8 °C 8.8 °C 1008.0 hPa SW 22.2 km/h 22.2 km/h 49 % 4.1 mm
15:38 19.5 °C 8.5 °C 1008.0 hPa West 18.5 km/h 18.5 km/h 49 % 4.1 mm
15:43 19.0 °C 8.1 °C 1008.0 hPa SW 20.4 km/h 20.4 km/h 49 % 0.0 mm
15:48 19.4 °C 8.7 °C 1008.0 hPa West 14.8 km/h 14.8 km/h 50 % 0.0 mm
15:53 19.8 °C 9.1 °C 1008.0 hPa SW 9.3 km/h 9.3 km/h 50 % 4.1 mm
15:58 19.6 °C 8.9 °C 1008.0 hPa South 11.1 km/h 11.1 km/h 50 % 0.0 mm
16:03 19.4 °C 8.7 °C 1008.0 hPa SW 25.9 km/h 25.9 km/h 50 % 0.0 mm
16:08 19.0 °C 8.1 °C 1008.0 hPa SW 13.0 km/h 13.0 km/h 49 % 0.0 mm
16:13 19.0 °C 8.3 °C 1008.0 hPa SW 16.7 km/h 16.7 km/h 50 % 0.0 mm
16:18 18.9 °C 8.6 °C 1008.0 hPa SSW 9.7 km/h 10.3 km/h 51 % 0.0 mm
16:23 18.5 °C 8.4 °C 1008.0 hPa SW 16.7 km/h 16.7 km/h 52 % 0.0 mm
16:28 18.6 °C 8.6 °C 1008.0 hPa WSW 18.5 km/h 18.5 km/h 52 % 0.0 mm
16:33 18.6 °C 8.6 °C 1007.0 hPa SSW 18.5 km/h 18.5 km/h 52 % 0.0 mm
16:38 18.3 °C 8.3 °C 1007.0 hPa SW 20.4 km/h 20.4 km/h 52 % 0.0 mm
16:43 18.6 °C 8.6 °C 1007.0 hPa SSW 16.7 km/h 16.7 km/h 52 % 0.0 mm
16:48 18.3 °C 7.7 °C 1008.0 hPa SSW 20.4 km/h 20.4 km/h 50 % 0.0 mm
16:53 18.3 °C 8.0 °C 1008.0 hPa WSW 18.5 km/h 19.0 km/h 51 % 0.0 mm
17:03 18.4 °C 8.1 °C 1008.0 hPa WSW 13.0 km/h 13.0 km/h 51 % 0.0 mm
17:08 18.2 °C 7.9 °C 1008.0 hPa SSW 13.0 km/h 13.0 km/h 51 % 0.0 mm
17:13 18.3 °C 8.0 °C 1008.0 hPa ESE 13.0 km/h 13.0 km/h 51 % 0.0 mm
17:18 18.6 °C 8.3 °C 1008.0 hPa SW 14.8 km/h 14.8 km/h 51 % 0.0 mm
17:23 18.6 °C 8.3 °C 1008.0 hPa SSW 9.3 km/h 9.3 km/h 51 % 0.0 mm
17:28 18.7 °C 8.3 °C 1008.0 hPa SSW 11.1 km/h 11.1 km/h 51 % 0.0 mm
17:33 18.4 °C 8.1 °C 1008.0 hPa SW 16.7 km/h 16.7 km/h 51 % 0.0 mm
17:38 18.4 °C 8.1 °C 1008.0 hPa SSW 18.5 km/h 18.5 km/h 51 % 0.0 mm
17:43 18.5 °C 8.2 °C 1008.0 hPa SSW 16.7 km/h 16.7 km/h 51 % 0.0 mm
17:48 18.5 °C 7.9 °C 1008.0 hPa WSW 19.5 km/h 19.5 km/h 50 % 0.0 mm
17:53 18.5 °C 7.9 °C 1008.0 hPa SW 25.9 km/h 25.9 km/h 50 % 0.0 mm
17:58 18.5 °C 7.9 °C 1008.0 hPa SW 22.2 km/h 22.2 km/h 50 % 0.0 mm
18:03 17.7 °C 7.4 °C 1008.0 hPa SSW 18.5 km/h 18.5 km/h 51 % 0.0 mm
18:08 17.7 °C 7.7 °C 1008.0 hPa SSW 13.0 km/h 13.0 km/h 52 % 0.0 mm
18:13 17.8 °C 7.8 °C 1008.0 hPa West 9.0 km/h 9.0 km/h 52 % 0.0 mm
18:23 17.6 °C 7.1 °C 1008.0 hPa WSW 14.8 km/h 14.8 km/h 50 % 0.0 mm
18:28 17.4 °C 7.2 °C 1008.0 hPa SW 14.8 km/h 14.8 km/h 51 % 0.0 mm
18:33 17.3 °C 7.1 °C 1007.0 hPa WSW 14.8 km/h 14.8 km/h 51 % 0.0 mm
18:38 17.3 °C 7.1 °C 1007.0 hPa WSW 11.1 km/h 11.1 km/h 51 % 0.0 mm
18:43 17.3 °C 7.1 °C 1007.0 hPa SW 3.7 km/h 8.7 km/h 51 % 0.0 mm
18:48 17.4 °C 7.2 °C 1008.0 hPa South 14.8 km/h 14.8 km/h 51 % 0.0 mm
18:53 17.4 °C 7.2 °C 1008.0 hPa SSW 11.1 km/h 11.1 km/h 51 % 0.0 mm
18:58 17.4 °C 7.2 °C 1008.0 hPa SSW 11.1 km/h 11.1 km/h 51 % 0.0 mm
19:03 17.4 °C 7.2 °C 1008.0 hPa WSW 18.5 km/h 18.5 km/h 51 % 0.0 mm
19:08 16.6 °C 6.4 °C 1008.0 hPa SSW 14.8 km/h 14.8 km/h 51 % 0.0 mm
19:10 12.0 °C 5.8 °C 1010.0 hPa Calm   1.6 km/h 66 % 0.0 mm
19:13 16.1 °C 6.2 °C 1008.0 hPa SW 14.8 km/h 14.8 km/h 52 % 0.0 mm
19:18 16.0 °C 6.2 °C 1008.0 hPa SW 9.3 km/h 9.3 km/h 52 % 0.0 mm
19:20 11.9 °C 5.7 °C 1009.0 hPa NNW 1.6 km/h 1.6 km/h 66 % 0.0 mm
19:23 16.0 °C 6.4 °C 1008.0 hPa SW 11.1 km/h 11.1 km/h 53 % 0.0 mm
19:28 16.0 °C 6.4 °C 1008.0 hPa SSW 7.4 km/h 7.4 km/h 53 % 0.0 mm
19:30 12.1 °C 5.9 °C 1009.0 hPa WNW 1.6 km/h 3.2 km/h 66 % 0.0 mm
19:33 16.0 °C 6.4 °C 1007.0 hPa SSW 7.4 km/h 7.4 km/h 53 % 0.0 mm
19:40 12.2 °C 6.4 °C 1010.0 hPa North 1.6 km/h 3.2 km/h 68 % 0.0 mm
19:48 15.4 °C 6.4 °C 1007.0 hPa WNW 5.6 km/h 5.6 km/h 55 % 0.0 mm
19:50 12.3 °C 6.6 °C 1009.0 hPa NE 1.6 km/h 4.8 km/h 68 % 0.0 mm
19:53 15.3 °C 6.6 °C 1007.0 hPa WNW 5.6 km/h 5.6 km/h 56 % 0.0 mm
19:58 15.1 °C 6.1 °C 1007.0 hPa South 5.6 km/h 5.6 km/h 55 % 0.0 mm
20:00 12.3 °C 6.6 °C 1009.0 hPa NE 3.2 km/h 3.2 km/h 68 % 0.0 mm
20:03 15.0 °C 5.8 °C 1008.0 hPa SSW 9.3 km/h 9.3 km/h 54 % 0.0 mm
20:08 14.9 °C 5.4 °C 1008.0 hPa SW 8.7 km/h 8.7 km/h 53 % 0.0 mm
20:10 12.3 °C 6.6 °C 1010.0 hPa Calm     68 % 0.0 mm
20:13 14.8 °C 5.3 °C 1008.0 hPa SW 13.0 km/h 13.0 km/h 53 % 0.0 mm
20:18 14.6 °C 4.8 °C 1008.0 hPa SSW 9.3 km/h 9.3 km/h 52 % 0.0 mm
20:20 12.4 °C 6.7 °C 1009.0 hPa NNE 1.6 km/h 3.2 km/h 68 % 0.0 mm
20:28 14.3 °C 4.8 °C 1008.0 hPa SW 9.3 km/h 9.3 km/h 53 % 0.0 mm
20:30 12.4 °C 6.9 °C 1009.0 hPa Calm   1.6 km/h 69 % 0.0 mm
20:33 14.2 °C 4.7 °C 1008.0 hPa SSW 9.3 km/h 9.3 km/h 53 % 0.0 mm
20:38 14.1 °C 4.7 °C 1008.0 hPa SSW 5.6 km/h 5.6 km/h 53 % 0.0 mm
20:40 12.2 °C 6.7 °C 1009.0 hPa NE 1.6 km/h 4.8 km/h 69 % 0.0 mm
20:43 14.0 °C 4.6 °C 1008.0 hPa SSW 9.3 km/h 9.3 km/h 53 % 0.0 mm
20:48 14.0 °C 4.6 °C 1008.0 hPa WSW 9.3 km/h 9.3 km/h 53 % 0.0 mm
20:50 11.9 °C 6.2 °C 1008.0 hPa NE 1.6 km/h 3.2 km/h 68 % 0.0 mm
20:53 14.0 °C 4.8 °C 1008.0 hPa SW 5.6 km/h 5.6 km/h 54 % 0.0 mm
20:58 13.9 °C 4.7 °C 1008.0 hPa SW 5.6 km/h 5.6 km/h 54 % 0.0 mm
21:00 11.5 °C 6.2 °C 1008.0 hPa Calm   3.2 km/h 70 % 0.0 mm
21:03 13.9 °C 4.7 °C 1008.0 hPa West 7.4 km/h 7.4 km/h 54 % 0.0 mm
21:08 13.6 °C 4.4 °C 1008.0 hPa WSW 5.6 km/h 5.6 km/h 54 % 0.0 mm
21:10 11.5 °C 6.2 °C 1009.0 hPa WSW 3.2 km/h 3.2 km/h 70 % 0.0 mm
21:13 13.5 °C 4.4 °C 1008.0 hPa SW 3.7 km/h 3.7 km/h 54 % 0.0 mm
21:18 13.4 °C 4.3 °C 1008.0 hPa WSW 5.6 km/h 5.6 km/h 54 % 0.0 mm
21:20 11.6 °C 6.5 °C 1010.0 hPa NE 1.6 km/h 3.2 km/h 71 % 0.0 mm
21:23 13.4 °C 4.6 °C 1008.0 hPa SSW 7.4 km/h 7.4 km/h 55 % 0.0 mm
21:28 13.4 °C 4.6 °C 1008.0 hPa SW 9.3 km/h 9.3 km/h 55 % 0.0 mm
21:30 11.7 °C 6.6 °C 1010.0 hPa NE 1.6 km/h 3.2 km/h 71 % 0.0 mm
21:33 13.4 °C 4.6 °C 1008.0 hPa WSW 9.3 km/h 9.3 km/h 55 % 0.0 mm
21:38 13.4 °C 4.8 °C 1008.0 hPa SW 7.4 km/h 7.4 km/h 56 % 0.0 mm
21:40 11.7 °C 6.6 °C 1010.0 hPa ENE 1.6 km/h 3.2 km/h 71 % 0.0 mm
21:43 13.4 °C 5.1 °C 1008.0 hPa WSW 5.6 km/h 5.6 km/h 57 % 0.0 mm
21:48 13.4 °C 5.1 °C 1008.0 hPa WSW 9.3 km/h 9.3 km/h 57 % 0.0 mm
21:50 11.6 °C 6.5 °C 1009.0 hPa ENE 3.2 km/h 4.8 km/h 71 % 0.0 mm
21:53 13.3 °C 5.2 °C 1008.0 hPa WSW 5.8 km/h 5.8 km/h 58 % 0.0 mm
21:58 13.3 °C 5.2 °C 1008.0 hPa SW 9.3 km/h 9.3 km/h 58 % 0.0 mm
22:00 11.5 °C 6.4 °C 1009.0 hPa ENE 3.2 km/h 3.2 km/h 71 % 0.0 mm
22:03 13.2 °C 5.6 °C 1009.0 hPa WSW 5.6 km/h 5.6 km/h 60 % 0.0 mm
22:08 13.2 °C 5.6 °C 1009.0 hPa SW 5.6 km/h 5.6 km/h 60 % 0.0 mm
22:10 11.4 °C 6.6 °C 1010.0 hPa ENE 3.2 km/h 4.8 km/h 72 % 0.0 mm
22:13 13.1 °C 5.5 °C 1009.0 hPa WSW 5.6 km/h 5.6 km/h 60 % 0.0 mm
22:20 11.3 °C 6.2 °C 1010.0 hPa ESE 1.6 km/h 3.2 km/h 71 % 0.0 mm
22:23 13.1 °C 5.5 °C 1009.0 hPa SW 3.7 km/h 3.9 km/h 60 % 0.0 mm
22:30 11.2 °C 6.3 °C 1010.0 hPa Calm   4.8 km/h 72 % 0.0 mm
22:33 12.9 °C 5.6 °C 1010.0 hPa West 3.2 km/h 3.2 km/h 61 % 0.0 mm
22:40 11.4 °C 6.7 °C 1010.0 hPa West 1.6 km/h 3.2 km/h 73 % 0.0 mm
22:43 12.9 °C 5.6 °C 1010.0 hPa WSW 3.2 km/h   61 % 0.0 mm
22:48 12.9 °C 5.6 °C 1010.0 hPa Calm     61 % 0.0 mm
22:50 11.5 °C 6.8 °C 1010.0 hPa Calm     73 % 0.0 mm
22:53 12.7 °C 5.6 °C 1010.0 hPa ENE 2.3 km/h 2.3 km/h 62 % 0.0 mm
22:58 12.7 °C 5.6 °C 1010.0 hPa ENE 2.6 km/h 2.6 km/h 62 % 0.0 mm
23:00 11.6 °C 6.9 °C 1010.0 hPa NE 3.2 km/h 4.8 km/h 73 % 0.0 mm
23:03 12.7 °C 5.6 °C 1009.0 hPa ENE 1.9 km/h 1.9 km/h 62 % 0.0 mm
23:08 12.7 °C 5.6 °C 1009.0 hPa Calm     62 % 0.0 mm
23:10 11.6 °C 6.9 °C 1010.0 hPa Calm   4.8 km/h 73 % 0.0 mm
23:13 12.7 °C 5.6 °C 1009.0 hPa NNE 3.7 km/h 3.7 km/h 62 % 0.0 mm
23:18 12.7 °C 5.6 °C 1009.0 hPa ENE 3.7 km/h 3.7 km/h 62 % 0.0 mm
23:20 11.4 °C 6.9 °C 1010.0 hPa ESE 3.2 km/h 4.8 km/h 74 % 0.0 mm
23:23 12.7 °C 5.6 °C 1009.0 hPa NE 4.7 km/h 4.7 km/h 62 % 0.0 mm
23:28 12.7 °C 5.6 °C 1009.0 hPa NNE 3.7 km/h 3.7 km/h 62 % 0.0 mm
23:30 11.1 °C 6.8 °C 1010.0 hPa South 1.6 km/h 4.8 km/h 75 % 0.0 mm
23:33 12.7 °C 5.6 °C 1009.0 hPa NE 3.7 km/h 3.7 km/h 62 % 0.0 mm
23:38 12.0 °C 5.2 °C 1009.0 hPa ENE 5.6 km/h 5.6 km/h 63 % 0.0 mm
23:40 11.1 °C 7.0 °C 1010.0 hPa Calm   3.2 km/h 76 % 0.0 mm
23:43 12.0 °C 5.4 °C 1009.0 hPa ENE 3.7 km/h 3.7 km/h 64 % 0.0 mm
23:48 12.0 °C 5.4 °C 1009.0 hPa NE 3.7 km/h 3.7 km/h 64 % 0.0 mm
23:50 11.1 °C 7.4 °C 1010.7 hPa NW 1.6 km/h 4.8 km/h 78 % 0.0 mm
23:53 12.1 °C 5.7 °C 1009.0 hPa NE 3.9 km/h 3.9 km/h 65 % 0.0 mm
23:58 12.1 °C 5.9 °C 1009.0 hPa NNE 1.9 km/h   66 % 0.0 mm
Meteo Sesrovires
Elogis d' Weather Underground - 3.5 mb

Guio original per  Jim McMurry - jmcmurry@mwt.net Adaptat per a la plantilla per  Wim van der Kuil - Leuven-Template.eu

Trobareu la nostra informacio del temps tambe a:

Weather Underground

AWEKAS